sensor_id;sensor_type;location;lat;lon;timestamp;P1;durP1;ratioP1;P2;durP2;ratioP2
75073;SDS011;63652;51.526;5.080;2022-10-04T00:01:19;10.80;;;5.95;;
75073;SDS011;63652;51.526;5.080;2022-10-04T00:03:46;12.52;;;6.10;;
75073;SDS011;63652;51.526;5.080;2022-10-04T00:06:16;15.30;;;5.78;;
75073;SDS011;63652;51.526;5.080;2022-10-04T00:08:50;9.05;;;5.18;;
75073;SDS011;63652;51.526;5.080;2022-10-04T00:11:22;13.07;;;5.93;;
75073;SDS011;63652;51.526;5.080;2022-10-04T00:14:36;9.75;;;4.88;;
75073;SDS011;63652;51.526;5.080;2022-10-04T00:16:40;10.55;;;4.95;;
75073;SDS011;63652;51.526;5.080;2022-10-04T00:29:49;13.90;;;6.35;;
75073;SDS011;63652;51.526;5.080;2022-10-04T00:34:49;11.43;;;6.13;;
75073;SDS011;63652;51.526;5.080;2022-10-04T00:37:17;11.27;;;6.32;;
75073;SDS011;63652;51.526;5.080;2022-10-04T00:39:43;12.70;;;6.50;;
75073;SDS011;63652;51.526;5.080;2022-10-04T00:42:33;12.88;;;6.63;;
75073;SDS011;63652;51.526;5.080;2022-10-04T00:50:17;15.57;;;7.75;;
75073;SDS011;63652;51.526;5.080;2022-10-04T00:52:47;13.75;;;7.50;;
75073;SDS011;63652;51.526;5.080;2022-10-04T00:55:23;13.48;;;7.10;;
75073;SDS011;63652;51.526;5.080;2022-10-04T00:57:50;13.38;;;6.97;;
75073;SDS011;63652;51.526;5.080;2022-10-04T01:00:19;13.23;;;6.95;;
75073;SDS011;63652;51.526;5.080;2022-10-04T01:02:54;19.20;;;8.63;;
75073;SDS011;63652;51.526;5.080;2022-10-04T01:08:06;13.52;;;7.75;;
75073;SDS011;63652;51.526;5.080;2022-10-04T01:10:39;15.48;;;9.15;;
75073;SDS011;63652;51.526;5.080;2022-10-04T01:16:02;18.60;;;9.25;;
75073;SDS011;63652;51.526;5.080;2022-10-04T01:18:32;16.75;;;8.35;;
75073;SDS011;63652;51.526;5.080;2022-10-04T01:23:32;14.60;;;7.32;;
75073;SDS011;63652;51.526;5.080;2022-10-04T01:25:58;12.93;;;7.07;;
75073;SDS011;63652;51.526;5.080;2022-10-04T01:28:23;15.52;;;7.68;;
75073;SDS011;63652;51.526;5.080;2022-10-04T01:30:49;11.73;;;6.93;;
75073;SDS011;63652;51.526;5.080;2022-10-04T01:33:15;13.70;;;8.63;;
75073;SDS011;63652;51.526;5.080;2022-10-04T01:35:40;14.30;;;7.70;;
75073;SDS011;63652;51.526;5.080;2022-10-04T01:38:06;12.93;;;8.13;;
75073;SDS011;63652;51.526;5.080;2022-10-04T01:40:32;14.38;;;8.23;;
75073;SDS011;63652;51.526;5.080;2022-10-04T01:43:05;14.32;;;7.88;;
75073;SDS011;63652;51.526;5.080;2022-10-04T01:45:41;10.10;;;6.57;;
75073;SDS011;63652;51.526;5.080;2022-10-04T01:48:10;14.43;;;7.97;;
75073;SDS011;63652;51.526;5.080;2022-10-04T01:50:50;11.23;;;7.38;;
75073;SDS011;63652;51.526;5.080;2022-10-04T01:55:51;19.80;;;8.07;;
75073;SDS011;63652;51.526;5.080;2022-10-04T01:58:37;13.32;;;8.10;;
75073;SDS011;63652;51.526;5.080;2022-10-04T02:01:11;15.30;;;8.77;;
75073;SDS011;63652;51.526;5.080;2022-10-04T02:06:21;15.13;;;8.40;;
75073;SDS011;63652;51.526;5.080;2022-10-04T02:08:48;16.55;;;8.57;;
75073;SDS011;63652;51.526;5.080;2022-10-04T02:11:19;16.13;;;8.77;;
75073;SDS011;63652;51.526;5.080;2022-10-04T02:13:46;13.27;;;8.20;;
75073;SDS011;63652;51.526;5.080;2022-10-04T02:16:13;11.15;;;7.80;;
75073;SDS011;63652;51.526;5.080;2022-10-04T02:18:40;12.75;;;7.18;;
75073;SDS011;63652;51.526;5.080;2022-10-04T02:21:08;11.35;;;7.05;;
75073;SDS011;63652;51.526;5.080;2022-10-04T02:23:35;14.50;;;7.80;;
75073;SDS011;63652;51.526;5.080;2022-10-04T02:26:05;14.95;;;7.25;;
75073;SDS011;63652;51.526;5.080;2022-10-04T02:28:34;12.98;;;7.13;;
75073;SDS011;63652;51.526;5.080;2022-10-04T02:31:00;13.85;;;6.93;;
75073;SDS011;63652;51.526;5.080;2022-10-04T02:33:45;11.88;;;6.55;;
75073;SDS011;63652;51.526;5.080;2022-10-04T02:36:12;10.95;;;6.80;;
75073;SDS011;63652;51.526;5.080;2022-10-04T02:38:40;11.18;;;7.35;;
75073;SDS011;63652;51.526;5.080;2022-10-04T02:41:15;14.82;;;6.72;;
75073;SDS011;63652;51.526;5.080;2022-10-04T02:43:52;10.10;;;6.97;;
75073;SDS011;63652;51.526;5.080;2022-10-04T02:46:27;11.05;;;5.72;;
75073;SDS011;63652;51.526;5.080;2022-10-04T02:49:01;13.88;;;6.93;;
75073;SDS011;63652;51.526;5.080;2022-10-04T02:51:37;10.10;;;6.10;;
75073;SDS011;63652;51.526;5.080;2022-10-04T02:56:39;13.55;;;6.57;;
75073;SDS011;63652;51.526;5.080;2022-10-04T02:59:05;12.32;;;6.53;;
75073;SDS011;63652;51.526;5.080;2022-10-04T03:01:38;17.67;;;7.57;;
75073;SDS011;63652;51.526;5.080;2022-10-04T03:04:05;17.17;;;7.35;;
75073;SDS011;63652;51.526;5.080;2022-10-04T03:06:31;16.35;;;7.53;;
75073;SDS011;63652;51.526;5.080;2022-10-04T03:08:58;12.50;;;6.95;;
75073;SDS011;63652;51.526;5.080;2022-10-04T03:11:26;14.05;;;6.68;;
75073;SDS011;63652;51.526;5.080;2022-10-04T03:13:56;11.45;;;6.60;;
75073;SDS011;63652;51.526;5.080;2022-10-04T03:16:23;9.80;;;6.55;;
75073;SDS011;63652;51.526;5.080;2022-10-04T03:18:50;14.32;;;7.43;;
75073;SDS011;63652;51.526;5.080;2022-10-04T03:21:18;14.50;;;7.20;;
75073;SDS011;63652;51.526;5.080;2022-10-04T03:23:45;10.75;;;7.28;;
75073;SDS011;63652;51.526;5.080;2022-10-04T03:29:30;10.90;;;6.63;;
75073;SDS011;63652;51.526;5.080;2022-10-04T03:31:56;12.98;;;7.47;;
75073;SDS011;63652;51.526;5.080;2022-10-04T03:36:52;12.88;;;7.35;;
75073;SDS011;63652;51.526;5.080;2022-10-04T03:39:33;15.38;;;7.88;;
75073;SDS011;63652;51.526;5.080;2022-10-04T03:42:02;15.40;;;6.85;;
75073;SDS011;63652;51.526;5.080;2022-10-04T03:44:32;11.07;;;7.35;;
75073;SDS011;63652;51.526;5.080;2022-10-04T03:46:57;12.73;;;7.13;;
75073;SDS011;63652;51.526;5.080;2022-10-04T03:49:34;12.63;;;7.28;;
75073;SDS011;63652;51.526;5.080;2022-10-04T03:52:01;13.35;;;6.63;;
75073;SDS011;63652;51.526;5.080;2022-10-04T03:54:27;15.38;;;8.15;;
75073;SDS011;63652;51.526;5.080;2022-10-04T03:56:53;17.80;;;9.07;;
75073;SDS011;63652;51.526;5.080;2022-10-04T03:59:19;13.73;;;8.15;;
75073;SDS011;63652;51.526;5.080;2022-10-04T04:02:00;12.88;;;7.57;;
75073;SDS011;63652;51.526;5.080;2022-10-04T04:07:13;14.43;;;8.35;;
75073;SDS011;63652;51.526;5.080;2022-10-04T04:10:02;14.52;;;8.38;;
75073;SDS011;63652;51.526;5.080;2022-10-04T04:12:36;14.75;;;7.78;;
75073;SDS011;63652;51.526;5.080;2022-10-04T04:15:03;14.25;;;7.97;;
75073;SDS011;63652;51.526;5.080;2022-10-04T04:17:33;16.98;;;8.57;;
75073;SDS011;63652;51.526;5.080;2022-10-04T04:20:02;14.88;;;7.90;;
75073;SDS011;63652;51.526;5.080;2022-10-04T04:22:30;16.70;;;7.82;;
75073;SDS011;63652;51.526;5.080;2022-10-04T04:24:59;13.13;;;7.35;;
75073;SDS011;63652;51.526;5.080;2022-10-04T04:27:26;12.85;;;8.05;;
75073;SDS011;63652;51.526;5.080;2022-10-04T04:29:53;16.65;;;8.60;;
75073;SDS011;63652;51.526;5.080;2022-10-04T04:34:57;15.10;;;8.90;;
75073;SDS011;63652;51.526;5.080;2022-10-04T04:37:24;16.30;;;9.00;;
75073;SDS011;63652;51.526;5.080;2022-10-04T04:39:50;16.70;;;8.90;;
75073;SDS011;63652;51.526;5.080;2022-10-04T04:42:34;14.20;;;8.50;;
75073;SDS011;63652;51.526;5.080;2022-10-04T04:45:05;14.57;;;8.70;;
75073;SDS011;63652;51.526;5.080;2022-10-04T04:47:41;14.35;;;8.38;;
75073;SDS011;63652;51.526;5.080;2022-10-04T04:52:48;14.48;;;8.73;;
75073;SDS011;63652;51.526;5.080;2022-10-04T04:55:23;14.15;;;8.68;;
75073;SDS011;63652;51.526;5.080;2022-10-04T04:57:51;14.73;;;10.20;;
75073;SDS011;63652;51.526;5.080;2022-10-04T05:00:20;18.80;;;9.57;;
75073;SDS011;63652;51.526;5.080;2022-10-04T05:02:51;17.85;;;8.88;;
75073;SDS011;63652;51.526;5.080;2022-10-04T05:05:22;13.63;;;8.20;;
75073;SDS011;63652;51.526;5.080;2022-10-04T05:08:02;15.98;;;8.35;;
75073;SDS011;63652;51.526;5.080;2022-10-04T05:10:32;15.60;;;8.52;;
75073;SDS011;63652;51.526;5.080;2022-10-04T05:12:59;14.65;;;8.27;;
75073;SDS011;63652;51.526;5.080;2022-10-04T05:15:26;15.55;;;8.73;;
75073;SDS011;63652;51.526;5.080;2022-10-04T05:17:52;13.95;;;8.48;;
75073;SDS011;63652;51.526;5.080;2022-10-04T05:20:18;14.10;;;8.02;;
75073;SDS011;63652;51.526;5.080;2022-10-04T05:22:44;13.15;;;8.25;;
75073;SDS011;63652;51.526;5.080;2022-10-04T05:25:22;17.05;;;8.75;;
75073;SDS011;63652;51.526;5.080;2022-10-04T05:27:50;19.13;;;9.65;;
75073;SDS011;63652;51.526;5.080;2022-10-04T05:33:02;17.08;;;9.70;;
75073;SDS011;63652;51.526;5.080;2022-10-04T05:43:47;16.05;;;9.93;;
75073;SDS011;63652;51.526;5.080;2022-10-04T05:46:24;18.13;;;9.20;;
75073;SDS011;63652;51.526;5.080;2022-10-04T05:49:07;18.38;;;9.55;;
75073;SDS011;63652;51.526;5.080;2022-10-04T05:51:53;15.50;;;8.45;;
75073;SDS011;63652;51.526;5.080;2022-10-04T05:54:21;18.35;;;8.55;;
75073;SDS011;63652;51.526;5.080;2022-10-04T06:07:49;12.27;;;7.10;;
75073;SDS011;63652;51.526;5.080;2022-10-04T06:21:29;15.65;;;7.57;;
75073;SDS011;63652;51.526;5.080;2022-10-04T06:23:57;18.63;;;10.60;;
75073;SDS011;63652;51.526;5.080;2022-10-04T06:26:47;16.05;;;9.50;;
75073;SDS011;63652;51.526;5.080;2022-10-04T06:29:19;13.07;;;7.53;;
75073;SDS011;63652;51.526;5.080;2022-10-04T06:34:52;18.65;;;9.02;;
75073;SDS011;63652;51.526;5.080;2022-10-04T06:53:39;12.77;;;7.13;;
75073;SDS011;63652;51.526;5.080;2022-10-04T06:59:14;13.10;;;7.80;;
75073;SDS011;63652;51.526;5.080;2022-10-04T07:02:07;14.57;;;7.32;;
75073;SDS011;63652;51.526;5.080;2022-10-04T07:05:01;14.13;;;7.68;;
75073;SDS011;63652;51.526;5.080;2022-10-04T07:07:30;12.82;;;8.32;;
75073;SDS011;63652;51.526;5.080;2022-10-04T07:12:42;13.93;;;7.47;;
75073;SDS011;63652;51.526;5.080;2022-10-04T07:15:22;13.10;;;7.80;;
75073;SDS011;63652;51.526;5.080;2022-10-04T07:17:50;19.50;;;9.52;;
75073;SDS011;63652;51.526;5.080;2022-10-04T07:20:25;16.77;;;9.05;;
75073;SDS011;63652;51.526;5.080;2022-10-04T07:22:55;19.35;;;8.27;;
75073;SDS011;63652;51.526;5.080;2022-10-04T07:30:51;16.67;;;8.13;;
75073;SDS011;63652;51.526;5.080;2022-10-04T07:33:24;14.95;;;9.00;;
75073;SDS011;63652;51.526;5.080;2022-10-04T07:35:58;20.38;;;9.70;;
75073;SDS011;63652;51.526;5.080;2022-10-04T07:38:28;17.17;;;7.57;;
75073;SDS011;63652;51.526;5.080;2022-10-04T07:41:07;20.92;;;7.90;;
75073;SDS011;63652;51.526;5.080;2022-10-04T07:46:31;16.27;;;6.95;;
75073;SDS011;63652;51.526;5.080;2022-10-04T07:49:12;9.63;;;5.65;;
75073;SDS011;63652;51.526;5.080;2022-10-04T07:57:10;12.90;;;4.88;;
75073;SDS011;63652;51.526;5.080;2022-10-04T08:00:15;11.00;;;4.93;;
75073;SDS011;63652;51.526;5.080;2022-10-04T08:03:03;12.43;;;6.28;;
75073;SDS011;63652;51.526;5.080;2022-10-04T08:05:37;9.85;;;4.60;;
75073;SDS011;63652;51.526;5.080;2022-10-04T08:10:49;11.52;;;4.70;;
75073;SDS011;63652;51.526;5.080;2022-10-04T08:13:41;11.45;;;5.07;;
75073;SDS011;63652;51.526;5.080;2022-10-04T08:22:01;9.27;;;5.03;;
75073;SDS011;63652;51.526;5.080;2022-10-04T08:24:36;10.40;;;4.63;;
75073;SDS011;63652;51.526;5.080;2022-10-04T08:27:38;13.15;;;5.88;;
75073;SDS011;63652;51.526;5.080;2022-10-04T08:30:39;18.83;;;5.53;;
75073;SDS011;63652;51.526;5.080;2022-10-04T08:33:14;11.00;;;5.10;;
75073;SDS011;63652;51.526;5.080;2022-10-04T08:41:31;13.70;;;5.68;;
75073;SDS011;63652;51.526;5.080;2022-10-04T08:49:44;11.98;;;6.00;;
75073;SDS011;63652;51.526;5.080;2022-10-04T09:01:16;11.60;;;4.80;;
75073;SDS011;63652;51.526;5.080;2022-10-04T09:06:40;11.25;;;5.18;;
75073;SDS011;63652;51.526;5.080;2022-10-04T09:45:22;10.13;;;5.10;;
75073;SDS011;63652;51.526;5.080;2022-10-04T09:53:28;13.55;;;5.82;;
75073;SDS011;63652;51.526;5.080;2022-10-04T10:07:07;13.68;;;5.75;;
75073;SDS011;63652;51.526;5.080;2022-10-04T10:09:44;12.35;;;5.50;;
75073;SDS011;63652;51.526;5.080;2022-10-04T10:21:52;13.73;;;5.25;;
75073;SDS011;63652;51.526;5.080;2022-10-04T10:30:22;12.18;;;4.53;;
75073;SDS011;63652;51.526;5.080;2022-10-04T10:35:28;9.30;;;4.05;;
75073;SDS011;63652;51.526;5.080;2022-10-04T10:41:07;10.57;;;4.03;;
75073;SDS011;63652;51.526;5.080;2022-10-04T10:51:56;10.57;;;3.95;;
75073;SDS011;63652;51.526;5.080;2022-10-04T11:14:29;9.80;;;3.95;;
75073;SDS011;63652;51.526;5.080;2022-10-04T11:33:35;6.90;;;3.20;;
75073;SDS011;63652;51.526;5.080;2022-10-04T11:42:23;7.82;;;4.65;;
75073;SDS011;63652;51.526;5.080;2022-10-04T11:53:43;9.02;;;3.65;;
75073;SDS011;63652;51.526;5.080;2022-10-04T11:59:04;9.07;;;4.25;;
75073;SDS011;63652;51.526;5.080;2022-10-04T12:01:59;6.30;;;3.20;;
75073;SDS011;63652;51.526;5.080;2022-10-04T12:15:42;8.07;;;2.80;;
75073;SDS011;63652;51.526;5.080;2022-10-04T12:24:22;4.78;;;2.67;;
75073;SDS011;63652;51.526;5.080;2022-10-04T12:43:21;6.07;;;2.78;;
75073;SDS011;63652;51.526;5.080;2022-10-04T12:51:51;13.23;;;3.22;;
75073;SDS011;63652;51.526;5.080;2022-10-04T12:59:34;5.22;;;2.67;;
75073;SDS011;63652;51.526;5.080;2022-10-04T13:05:23;8.70;;;2.88;;
75073;SDS011;63652;51.526;5.080;2022-10-04T13:21:10;8.02;;;3.08;;
75073;SDS011;63652;51.526;5.080;2022-10-04T13:23:45;8.07;;;2.67;;
75073;SDS011;63652;51.526;5.080;2022-10-04T13:27:03;6.53;;;2.78;;
75073;SDS011;63652;51.526;5.080;2022-10-04T13:29:42;9.82;;;3.38;;
75073;SDS011;63652;51.526;5.080;2022-10-04T13:32:22;7.40;;;3.40;;
75073;SDS011;63652;51.526;5.080;2022-10-04T13:35:00;10.95;;;3.67;;
75073;SDS011;63652;51.526;5.080;2022-10-04T13:40:24;20.65;;;4.20;;
75073;SDS011;63652;51.526;5.080;2022-10-04T13:59:52;6.95;;;3.25;;
75073;SDS011;63652;51.526;5.080;2022-10-04T14:02:46;6.20;;;3.00;;
75073;SDS011;63652;51.526;5.080;2022-10-04T14:19:21;8.15;;;2.63;;
75073;SDS011;63652;51.526;5.080;2022-10-04T14:29:41;6.35;;;2.70;;
75073;SDS011;63652;51.526;5.080;2022-10-04T14:40:26;7.05;;;2.70;;
75073;SDS011;63652;51.526;5.080;2022-10-04T14:45:37;6.78;;;2.67;;
75073;SDS011;63652;51.526;5.080;2022-10-04T14:48:25;7.90;;;2.70;;
75073;SDS011;63652;51.526;5.080;2022-10-04T15:02:03;7.63;;;2.55;;
75073;SDS011;63652;51.526;5.080;2022-10-04T15:10:50;8.05;;;2.47;;
75073;SDS011;63652;51.526;5.080;2022-10-04T15:13:30;6.82;;;2.28;;
75073;SDS011;63652;51.526;5.080;2022-10-04T15:30:02;5.43;;;2.30;;
75073;SDS011;63652;51.526;5.080;2022-10-04T15:32:45;5.63;;;2.25;;
75073;SDS011;63652;51.526;5.080;2022-10-04T15:35:27;6.70;;;2.58;;
75073;SDS011;63652;51.526;5.080;2022-10-04T15:38:17;7.22;;;2.45;;
75073;SDS011;63652;51.526;5.080;2022-10-04T15:41:02;4.05;;;2.45;;
75073;SDS011;63652;51.526;5.080;2022-10-04T15:43:56;4.93;;;2.47;;
75073;SDS011;63652;51.526;5.080;2022-10-04T15:46:48;8.32;;;2.50;;
75073;SDS011;63652;51.526;5.080;2022-10-04T15:58:12;5.90;;;2.15;;
75073;SDS011;63652;51.526;5.080;2022-10-04T16:00:41;8.30;;;2.70;;
75073;SDS011;63652;51.526;5.080;2022-10-04T16:03:34;8.25;;;3.00;;
75073;SDS011;63652;51.526;5.080;2022-10-04T16:08:50;6.53;;;2.55;;
75073;SDS011;63652;51.526;5.080;2022-10-04T16:11:32;6.05;;;2.50;;
75073;SDS011;63652;51.526;5.080;2022-10-04T16:14:21;6.00;;;2.70;;
75073;SDS011;63652;51.526;5.080;2022-10-04T16:22:17;7.82;;;2.88;;
75073;SDS011;63652;51.526;5.080;2022-10-04T16:25:28;4.97;;;2.20;;
75073;SDS011;63652;51.526;5.080;2022-10-04T16:30:30;6.68;;;3.17;;
75073;SDS011;63652;51.526;5.080;2022-10-04T16:33:04;6.18;;;3.15;;
75073;SDS011;63652;51.526;5.080;2022-10-04T16:35:50;7.93;;;2.80;;
75073;SDS011;63652;51.526;5.080;2022-10-04T16:38:26;5.05;;;2.72;;
75073;SDS011;63652;51.526;5.080;2022-10-04T16:40:59;6.10;;;2.53;;
75073;SDS011;63652;51.526;5.080;2022-10-04T16:43:31;5.68;;;3.17;;
75073;SDS011;63652;51.526;5.080;2022-10-04T16:48:58;5.60;;;2.70;;
75073;SDS011;63652;51.526;5.080;2022-10-04T16:51:30;6.88;;;2.90;;
75073;SDS011;63652;51.526;5.080;2022-10-04T17:04:50;7.13;;;3.58;;
75073;SDS011;63652;51.526;5.080;2022-10-04T17:07:50;8.15;;;3.60;;
75073;SDS011;63652;51.526;5.080;2022-10-04T17:10:30;7.00;;;3.22;;
75073;SDS011;63652;51.526;5.080;2022-10-04T17:26:46;7.40;;;3.22;;
75073;SDS011;63652;51.526;5.080;2022-10-04T17:30:21;9.07;;;3.63;;
75073;SDS011;63652;51.526;5.080;2022-10-04T17:35:44;7.95;;;3.83;;
75073;SDS011;63652;51.526;5.080;2022-10-04T17:40:43;7.45;;;3.30;;
75073;SDS011;63652;51.526;5.080;2022-10-04T17:43:26;6.88;;;2.85;;
75073;SDS011;63652;51.526;5.080;2022-10-04T17:49:15;8.00;;;3.80;;
75073;SDS011;63652;51.526;5.080;2022-10-04T17:52:10;11.07;;;4.35;;
75073;SDS011;63652;51.526;5.080;2022-10-04T17:54:58;10.57;;;3.95;;
75073;SDS011;63652;51.526;5.080;2022-10-04T17:57:53;13.55;;;5.00;;
75073;SDS011;63652;51.526;5.080;2022-10-04T18:00:24;11.18;;;5.05;;
75073;SDS011;63652;51.526;5.080;2022-10-04T18:03:30;13.70;;;5.47;;
75073;SDS011;63652;51.526;5.080;2022-10-04T18:05:57;25.45;;;11.65;;
75073;SDS011;63652;51.526;5.080;2022-10-04T18:08:31;16.63;;;8.23;;
75073;SDS011;63652;51.526;5.080;2022-10-04T18:16:23;29.80;;;18.33;;
75073;SDS011;63652;51.526;5.080;2022-10-04T18:22:20;9.52;;;4.50;;
75073;SDS011;63652;51.526;5.080;2022-10-04T18:27:51;9.48;;;4.95;;
75073;SDS011;63652;51.526;5.080;2022-10-04T18:30:23;13.25;;;5.07;;
75073;SDS011;63652;51.526;5.080;2022-10-04T18:32:49;12.00;;;4.75;;
75073;SDS011;63652;51.526;5.080;2022-10-04T18:37:57;10.50;;;4.90;;
75073;SDS011;63652;51.526;5.080;2022-10-04T18:40:40;9.32;;;4.22;;
75073;SDS011;63652;51.526;5.080;2022-10-04T18:46:13;9.82;;;4.65;;
75073;SDS011;63652;51.526;5.080;2022-10-04T18:51:26;9.30;;;4.53;;
75073;SDS011;63652;51.526;5.080;2022-10-04T18:56:25;7.57;;;4.03;;
75073;SDS011;63652;51.526;5.080;2022-10-04T19:10:22;8.25;;;4.00;;
75073;SDS011;63652;51.526;5.080;2022-10-04T19:13:07;10.52;;;4.57;;
75073;SDS011;63652;51.526;5.080;2022-10-04T19:18:42;7.55;;;4.50;;
75073;SDS011;63652;51.526;5.080;2022-10-04T19:26:38;10.15;;;4.85;;
75073;SDS011;63652;51.526;5.080;2022-10-04T19:31:51;10.95;;;5.05;;
75073;SDS011;63652;51.526;5.080;2022-10-04T19:42:57;8.20;;;4.47;;
75073;SDS011;63652;51.526;5.080;2022-10-04T19:48:26;11.35;;;5.18;;
75073;SDS011;63652;51.526;5.080;2022-10-04T19:51:01;9.70;;;4.95;;
75073;SDS011;63652;51.526;5.080;2022-10-04T19:53:34;11.32;;;5.32;;
75073;SDS011;63652;51.526;5.080;2022-10-04T19:56:05;11.23;;;6.57;;
75073;SDS011;63652;51.526;5.080;2022-10-04T19:58:46;41.10;;;16.83;;
75073;SDS011;63652;51.526;5.080;2022-10-04T20:01:18;37.45;;;16.70;;
75073;SDS011;63652;51.526;5.080;2022-10-04T20:03:45;30.73;;;12.88;;
75073;SDS011;63652;51.526;5.080;2022-10-04T20:06:20;11.65;;;5.50;;
75073;SDS011;63652;51.526;5.080;2022-10-04T20:08:53;12.50;;;4.95;;
75073;SDS011;63652;51.526;5.080;2022-10-04T20:11:27;10.32;;;4.53;;
75073;SDS011;63652;51.526;5.080;2022-10-04T20:19:57;9.38;;;4.95;;
75073;SDS011;63652;51.526;5.080;2022-10-04T20:27:05;9.50;;;5.30;;
75073;SDS011;63652;51.526;5.080;2022-10-04T20:32:08;10.07;;;4.65;;
75073;SDS011;63652;51.526;5.080;2022-10-04T20:37:03;9.35;;;4.78;;
75073;SDS011;63652;51.526;5.080;2022-10-04T20:50:13;9.88;;;4.85;;
75073;SDS011;63652;51.526;5.080;2022-10-04T20:52:47;8.20;;;4.78;;
75073;SDS011;63652;51.526;5.080;2022-10-04T20:55:19;10.32;;;5.22;;
75073;SDS011;63652;51.526;5.080;2022-10-04T20:57:46;11.02;;;4.47;;
75073;SDS011;63652;51.526;5.080;2022-10-04T21:00:19;10.93;;;5.28;;
75073;SDS011;63652;51.526;5.080;2022-10-04T21:02:45;7.35;;;5.07;;
75073;SDS011;63652;51.526;5.080;2022-10-04T21:05:29;7.30;;;4.28;;
75073;SDS011;63652;51.526;5.080;2022-10-04T21:08:11;9.90;;;4.95;;
75073;SDS011;63652;51.526;5.080;2022-10-04T21:13:50;9.43;;;4.50;;
75073;SDS011;63652;51.526;5.080;2022-10-04T21:16:37;11.32;;;5.63;;
75073;SDS011;63652;51.526;5.080;2022-10-04T21:21:53;10.60;;;4.90;;
75073;SDS011;63652;51.526;5.080;2022-10-04T21:27:31;12.65;;;5.97;;
75073;SDS011;63652;51.526;5.080;2022-10-04T21:29:58;10.32;;;4.90;;
75073;SDS011;63652;51.526;5.080;2022-10-04T21:32:31;8.90;;;4.28;;
75073;SDS011;63652;51.526;5.080;2022-10-04T21:34:58;8.98;;;5.07;;
75073;SDS011;63652;51.526;5.080;2022-10-04T21:37:24;10.05;;;5.05;;
75073;SDS011;63652;51.526;5.080;2022-10-04T21:39:50;7.68;;;4.82;;
75073;SDS011;63652;51.526;5.080;2022-10-04T21:42:15;10.95;;;5.10;;
75073;SDS011;63652;51.526;5.080;2022-10-04T21:44:41;10.88;;;4.57;;
75073;SDS011;63652;51.526;5.080;2022-10-04T21:47:06;7.50;;;4.28;;
75073;SDS011;63652;51.526;5.080;2022-10-04T21:49:31;9.23;;;4.03;;
75073;SDS011;63652;51.526;5.080;2022-10-04T21:51:57;10.32;;;5.45;;
75073;SDS011;63652;51.526;5.080;2022-10-04T21:54:22;10.80;;;4.30;;
75073;SDS011;63652;51.526;5.080;2022-10-04T21:56:48;10.50;;;4.40;;
75073;SDS011;63652;51.526;5.080;2022-10-04T21:59:13;10.80;;;4.95;;
75073;SDS011;63652;51.526;5.080;2022-10-04T22:01:38;6.22;;;3.58;;
75073;SDS011;63652;51.526;5.080;2022-10-04T22:04:04;13.15;;;5.05;;
75073;SDS011;63652;51.526;5.080;2022-10-04T22:06:29;11.00;;;4.85;;
75073;SDS011;63652;51.526;5.080;2022-10-04T22:08:55;10.27;;;4.72;;
75073;SDS011;63652;51.526;5.080;2022-10-04T22:11:20;10.50;;;5.15;;
75073;SDS011;63652;51.526;5.080;2022-10-04T22:13:46;7.90;;;4.90;;
75073;SDS011;63652;51.526;5.080;2022-10-04T22:16:12;12.93;;;5.90;;
75073;SDS011;63652;51.526;5.080;2022-10-04T22:18:38;7.95;;;4.85;;
75073;SDS011;63652;51.526;5.080;2022-10-04T22:21:04;10.07;;;4.88;;
75073;SDS011;63652;51.526;5.080;2022-10-04T22:23:32;11.02;;;4.50;;
75073;SDS011;63652;51.526;5.080;2022-10-04T22:26:05;11.43;;;5.20;;
75073;SDS011;63652;51.526;5.080;2022-10-04T22:28:34;8.52;;;5.05;;
75073;SDS011;63652;51.526;5.080;2022-10-04T22:31:00;10.07;;;5.47;;
75073;SDS011;63652;51.526;5.080;2022-10-04T22:33:36;9.98;;;5.15;;
75073;SDS011;63652;51.526;5.080;2022-10-04T22:38:55;9.13;;;5.18;;
75073;SDS011;63652;51.526;5.080;2022-10-04T22:41:34;9.82;;;4.68;;
75073;SDS011;63652;51.526;5.080;2022-10-04T22:44:05;8.13;;;4.55;;
75073;SDS011;63652;51.526;5.080;2022-10-04T22:46:38;12.52;;;5.40;;
75073;SDS011;63652;51.526;5.080;2022-10-04T22:49:09;12.55;;;4.93;;
75073;SDS011;63652;51.526;5.080;2022-10-04T22:51:36;9.20;;;4.75;;
75073;SDS011;63652;51.526;5.080;2022-10-04T22:54:08;9.32;;;4.20;;
75073;SDS011;63652;51.526;5.080;2022-10-04T22:56:35;10.63;;;4.20;;
75073;SDS011;63652;51.526;5.080;2022-10-04T22:59:00;7.75;;;4.18;;
75073;SDS011;63652;51.526;5.080;2022-10-04T23:01:25;7.70;;;4.95;;
75073;SDS011;63652;51.526;5.080;2022-10-04T23:03:51;8.10;;;4.68;;
75073;SDS011;63652;51.526;5.080;2022-10-04T23:06:18;10.02;;;4.95;;
75073;SDS011;63652;51.526;5.080;2022-10-04T23:08:44;9.55;;;4.78;;
75073;SDS011;63652;51.526;5.080;2022-10-04T23:11:10;11.20;;;4.93;;
75073;SDS011;63652;51.526;5.080;2022-10-04T23:13:36;8.43;;;4.47;;
75073;SDS011;63652;51.526;5.080;2022-10-04T23:16:18;10.30;;;4.70;;
75073;SDS011;63652;51.526;5.080;2022-10-04T23:18:46;11.88;;;6.15;;
75073;SDS011;63652;51.526;5.080;2022-10-04T23:21:22;9.73;;;5.03;;
75073;SDS011;63652;51.526;5.080;2022-10-04T23:23:49;8.63;;;4.75;;
75073;SDS011;63652;51.526;5.080;2022-10-04T23:26:20;9.40;;;5.03;;
75073;SDS011;63652;51.526;5.080;2022-10-04T23:28:47;14.93;;;4.03;;
75073;SDS011;63652;51.526;5.080;2022-10-04T23:31:14;10.80;;;5.63;;
75073;SDS011;63652;51.526;5.080;2022-10-04T23:33:43;9.23;;;4.60;;
75073;SDS011;63652;51.526;5.080;2022-10-04T23:36:12;8.70;;;4.95;;
75073;SDS011;63652;51.526;5.080;2022-10-04T23:38:38;10.43;;;4.80;;
75073;SDS011;63652;51.526;5.080;2022-10-04T23:41:08;8.45;;;4.65;;
75073;SDS011;63652;51.526;5.080;2022-10-04T23:45:59;11.00;;;4.37;;
75073;SDS011;63652;51.526;5.080;2022-10-04T23:48:25;8.98;;;4.85;;
75073;SDS011;63652;51.526;5.080;2022-10-04T23:50:52;9.75;;;4.65;;
75073;SDS011;63652;51.526;5.080;2022-10-04T23:53:21;14.60;;;6.43;;
75073;SDS011;63652;51.526;5.080;2022-10-04T23:55:48;9.90;;;4.78;;
75073;SDS011;63652;51.526;5.080;2022-10-04T23:58:18;9.57;;;5.35;;
